createdAt,value
2018-03-26T00:02:35.585Z,25.73
2018-03-26T00:05:38.061Z,28.30
2018-03-26T00:08:40.562Z,30.63
2018-03-26T00:11:43.061Z,29.13
2018-03-26T00:14:45.531Z,29.77
2018-03-26T00:17:48.035Z,31.13
2018-03-26T00:20:50.509Z,29.33
2018-03-26T00:23:53.071Z,30.67
2018-03-26T00:26:55.565Z,31.67
2018-03-26T00:29:58.015Z,29.90
2018-03-26T00:33:00.604Z,31.30
2018-03-26T00:36:03.060Z,32.00
2018-03-26T00:39:05.573Z,32.70
2018-03-26T00:42:08.132Z,33.63
2018-03-26T00:45:10.650Z,30.27
2018-03-26T00:48:13.094Z,32.30
2018-03-26T00:51:15.595Z,32.40
2018-03-26T00:54:18.066Z,31.67
2018-03-26T00:57:20.639Z,31.63
2018-03-26T01:00:23.113Z,32.40
2018-03-26T01:03:25.634Z,33.43
2018-03-26T01:06:28.130Z,35.03
2018-03-26T01:09:30.649Z,35.37
2018-03-26T01:12:33.331Z,36.70
2018-03-26T01:15:35.785Z,35.57
2018-03-26T01:18:38.266Z,37.90
2018-03-26T01:21:40.760Z,37.10
2018-03-26T01:24:43.202Z,37.93
2018-03-26T01:27:45.695Z,39.83
2018-03-26T01:30:48.156Z,37.43
2018-03-26T01:33:50.660Z,37.77
2018-03-26T01:36:53.140Z,36.27
2018-03-26T01:39:55.702Z,37.93
2018-03-26T01:42:58.150Z,38.87
2018-03-26T01:46:00.626Z,37.60
2018-03-26T01:49:03.098Z,41.03
2018-03-26T01:52:05.650Z,37.87
2018-03-26T01:55:08.113Z,38.10
2018-03-26T01:58:10.672Z,36.90
2018-03-26T02:01:13.137Z,41.47
2018-03-26T02:04:15.693Z,37.70
2018-03-26T02:07:18.151Z,36.17
2018-03-26T02:10:20.717Z,38.17
2018-03-26T02:13:23.246Z,39.90
2018-03-26T02:16:25.723Z,39.70
2018-03-26T02:19:28.216Z,38.57
2018-03-26T02:22:30.697Z,41.27
2018-03-26T02:25:33.176Z,38.50
2018-03-26T02:28:35.688Z,39.40
2018-03-26T02:31:38.141Z,39.10
2018-03-26T02:34:40.670Z,39.60
2018-03-26T02:37:43.075Z,37.47
2018-03-26T02:40:45.558Z,37.27
2018-03-26T02:43:47.993Z,38.67
2018-03-26T02:46:50.497Z,37.80
2018-03-26T02:49:53.019Z,39.27
2018-03-26T02:52:55.553Z,39.00
2018-03-26T02:55:58.052Z,36.03
2018-03-26T02:59:00.592Z,36.60
2018-03-26T03:02:03.057Z,36.53
2018-03-26T03:05:05.532Z,36.53
2018-03-26T03:08:08.082Z,36.13
2018-03-26T03:11:10.582Z,35.13
2018-03-26T03:14:13.109Z,36.00
2018-03-26T03:17:15.669Z,35.90
2018-03-26T03:20:18.227Z,35.53
2018-03-26T03:23:20.792Z,36.47
2018-03-26T03:26:23.297Z,36.47
2018-03-26T03:29:25.840Z,37.00
2018-03-26T03:32:28.354Z,38.37
2018-03-26T03:35:30.862Z,37.20
2018-03-26T03:38:33.344Z,37.27
2018-03-26T03:41:35.861Z,37.80
2018-03-26T03:44:38.344Z,38.37
2018-03-26T03:47:40.823Z,38.17
2018-03-26T03:50:43.292Z,38.07
2018-03-26T03:53:45.803Z,39.30
2018-03-26T03:56:48.267Z,39.37
2018-03-26T03:59:50.783Z,38.33
2018-03-26T04:02:53.293Z,37.20
2018-03-26T04:05:55.756Z,39.70
2018-03-26T04:08:58.208Z,39.60
2018-03-26T04:12:00.772Z,38.40
2018-03-26T04:15:03.263Z,37.67
2018-03-26T04:18:05.795Z,37.10
2018-03-26T04:21:08.357Z,36.80
2018-03-26T04:24:10.830Z,37.60
2018-03-26T04:27:13.349Z,33.90
2018-03-26T04:30:15.840Z,36.50
2018-03-26T04:33:18.348Z,36.67
2018-03-26T04:36:20.819Z,34.37
2018-03-26T04:39:23.307Z,35.17
2018-03-26T04:42:25.807Z,35.13
2018-03-26T04:45:28.458Z,34.40
2018-03-26T04:48:30.979Z,35.00
2018-03-26T04:51:33.457Z,35.87
2018-03-26T04:54:35.894Z,35.97
2018-03-26T04:57:38.408Z,35.47
2018-03-26T05:00:40.860Z,35.00
2018-03-26T05:03:43.302Z,34.80
2018-03-26T05:06:45.794Z,34.50
2018-03-26T05:09:48.234Z,35.47
2018-03-26T05:12:50.714Z,35.23
2018-03-26T05:15:53.364Z,35.80
2018-03-26T05:18:55.925Z,34.30
2018-03-26T05:21:58.487Z,33.47
2018-03-26T05:25:01.010Z,36.00
2018-03-26T05:28:03.470Z,33.80
2018-03-26T05:31:06.615Z,32.90
2018-03-26T05:34:09.054Z,33.07
2018-03-26T05:37:11.529Z,33.17
2018-03-26T05:40:14.009Z,32.10
2018-03-26T05:43:16.493Z,31.73
2018-03-26T05:46:19.033Z,32.20
2018-03-26T05:49:21.549Z,34.37
2018-03-26T05:52:24.038Z,31.97
2018-03-26T05:55:26.503Z,31.17
2018-03-26T05:58:29.038Z,31.70
2018-03-26T06:01:31.524Z,31.67
2018-03-26T06:04:34.059Z,31.60
2018-03-26T06:07:36.624Z,32.93
2018-03-26T06:10:39.069Z,32.37
2018-03-26T06:13:41.648Z,33.33
2018-03-26T06:20:16.334Z,31.63
2018-03-26T06:23:18.809Z,31.43
2018-03-26T06:26:21.349Z,33.33
2018-03-26T06:29:23.816Z,31.40
2018-03-26T06:32:26.250Z,31.40
2018-03-26T06:35:28.729Z,32.10
2018-03-26T06:38:36.945Z,31.30
2018-03-26T06:41:39.389Z,31.27
2018-03-26T06:44:41.966Z,31.53
2018-03-26T06:47:44.468Z,32.50
2018-03-26T06:50:46.940Z,31.87
2018-03-26T06:53:49.394Z,30.10
2018-03-26T06:56:51.878Z,30.53
2018-03-26T06:59:54.429Z,29.63
2018-03-26T07:02:56.893Z,30.73
2018-03-26T07:05:59.371Z,31.27
2018-03-26T07:09:01.834Z,30.07
2018-03-26T07:12:04.359Z,31.00
2018-03-26T07:15:06.924Z,31.53
2018-03-26T07:18:09.546Z,32.60
2018-03-26T07:21:12.051Z,34.30
2018-03-26T07:24:14.527Z,33.40
2018-03-26T07:27:17.004Z,33.70
2018-03-26T07:30:19.439Z,32.60
2018-03-26T07:33:21.909Z,33.07
2018-03-26T07:36:24.390Z,31.47
2018-03-26T07:39:26.850Z,32.23
2018-03-26T07:42:29.334Z,33.47
2018-03-26T07:45:31.832Z,30.40
2018-03-26T07:48:34.264Z,30.33
2018-03-26T07:51:36.856Z,28.00
2018-03-26T07:54:39.360Z,23.93
2018-03-26T07:57:41.785Z,26.17
2018-03-26T08:00:44.314Z,27.30
2018-03-26T08:03:46.839Z,24.63
2018-03-26T08:06:49.305Z,25.97
2018-03-26T08:09:51.886Z,23.93
2018-03-26T08:12:54.486Z,25.20
2018-03-26T08:15:57.027Z,22.70
2018-03-26T08:18:59.455Z,23.17
2018-03-26T08:22:01.931Z,22.93
2018-03-26T08:25:04.362Z,23.03
2018-03-26T08:28:06.832Z,21.80
2018-03-26T08:31:09.317Z,23.83
2018-03-26T08:34:11.876Z,23.20
2018-03-26T08:37:14.362Z,20.83
2018-03-26T08:40:16.921Z,20.50
2018-03-26T08:43:19.425Z,20.90
2018-03-26T08:46:21.897Z,20.83
2018-03-26T08:49:24.364Z,19.20
2018-03-26T08:52:26.892Z,19.33
2018-03-26T08:55:29.351Z,18.67
2018-03-26T08:58:31.941Z,17.83
2018-03-26T09:01:34.460Z,17.17
2018-03-26T09:04:36.931Z,17.50
2018-03-26T09:07:39.403Z,17.70
2018-03-26T09:10:41.901Z,16.97
2018-03-26T09:13:44.378Z,17.33
2018-03-26T09:16:46.868Z,16.30
2018-03-26T09:19:49.385Z,17.13
2018-03-26T09:22:51.994Z,16.03
2018-03-26T09:25:54.542Z,15.37
2018-03-26T09:28:57.092Z,15.97
2018-03-26T09:31:59.562Z,15.17
2018-03-26T09:35:01.988Z,15.53
2018-03-26T09:38:04.572Z,14.13
2018-03-26T09:41:07.067Z,13.70
2018-03-26T09:44:09.532Z,13.90
2018-03-26T09:47:12.038Z,11.40
2018-03-26T09:50:14.567Z,12.53
2018-03-26T09:53:17.102Z,13.07
2018-03-26T09:56:19.592Z,12.70
2018-03-26T09:59:22.069Z,12.67
2018-03-26T10:02:24.619Z,13.20
2018-03-26T10:05:27.098Z,12.47
2018-03-26T10:08:29.602Z,11.60
2018-03-26T10:11:32.107Z,11.90
2018-03-26T10:14:34.723Z,12.93
2018-03-26T10:17:37.276Z,12.77
2018-03-26T10:20:39.746Z,13.20
2018-03-26T10:23:42.298Z,12.03
2018-03-26T10:26:44.772Z,11.30
2018-03-26T10:29:47.223Z,11.10
2018-03-26T10:32:49.777Z,9.73
2018-03-26T10:35:52.313Z,10.63
2018-03-26T10:38:54.806Z,11.40
2018-03-26T10:41:57.303Z,10.90
2018-03-26T10:44:59.823Z,10.67
2018-03-26T10:48:02.583Z,10.60
2018-03-26T10:51:05.061Z,11.00
2018-03-26T10:54:07.592Z,10.50
2018-03-26T10:57:10.028Z,11.20
2018-03-26T11:00:13.307Z,11.57
2018-03-26T11:03:15.818Z,9.70
2018-03-26T11:06:18.310Z,12.53
2018-03-26T11:09:20.789Z,11.20
2018-03-26T11:12:23.299Z,11.23
2018-03-26T11:15:25.808Z,11.73
2018-03-26T11:18:28.283Z,11.60
2018-03-26T11:21:30.752Z,10.63
2018-03-26T11:24:33.347Z,10.40
2018-03-26T11:27:35.907Z,10.30
2018-03-26T11:30:38.388Z,10.03
2018-03-26T11:33:40.906Z,11.50
2018-03-26T11:36:43.394Z,9.90
2018-03-26T11:39:45.964Z,10.27
2018-03-26T11:42:48.424Z,10.13
2018-03-26T11:45:51.023Z,10.10
2018-03-26T11:48:53.458Z,11.27
2018-03-26T11:51:55.999Z,10.60
2018-03-26T11:54:58.568Z,10.90
2018-03-26T11:58:01.129Z,11.00
2018-03-26T12:01:03.594Z,11.27
2018-03-26T12:04:06.042Z,9.97
2018-03-26T12:07:08.510Z,11.27
2018-03-26T12:10:11.084Z,10.93
2018-03-26T12:13:13.694Z,9.80
2018-03-26T12:16:16.222Z,10.20
2018-03-26T12:19:18.914Z,9.27
2018-03-26T12:22:21.413Z,10.20
2018-03-26T12:25:23.924Z,10.10
2018-03-26T12:28:38.138Z,9.33
2018-03-26T12:31:40.637Z,9.00
2018-03-26T12:34:54.905Z,9.07
2018-03-26T12:37:57.459Z,8.80
2018-03-26T12:41:00.043Z,9.17
2018-03-26T12:44:02.570Z,9.27
2018-03-26T12:47:05.158Z,9.90
2018-03-26T12:50:07.668Z,10.40
2018-03-26T12:53:10.093Z,10.40
2018-03-26T12:56:12.628Z,10.87
2018-03-26T12:59:15.208Z,12.17
2018-03-26T13:02:26.470Z,12.40
2018-03-26T13:05:28.942Z,10.57
2018-03-26T13:08:31.426Z,11.77
2018-03-26T13:11:33.923Z,11.50
2018-03-26T13:14:36.510Z,11.33
2018-03-26T13:17:38.976Z,12.17
2018-03-26T13:20:41.491Z,10.80
2018-03-26T13:23:43.943Z,10.70
2018-03-26T13:26:46.454Z,9.50
2018-03-26T13:29:48.930Z,10.80
2018-03-26T13:32:51.483Z,9.87
2018-03-26T13:35:53.969Z,9.27
2018-03-26T13:38:56.504Z,8.90
2018-03-26T13:41:59.066Z,9.73
2018-03-26T13:45:01.539Z,9.00
2018-03-26T13:48:04.027Z,9.03
2018-03-26T13:51:06.544Z,9.87
2018-03-26T13:54:09.116Z,9.60
2018-03-26T13:57:11.604Z,9.43
2018-03-26T14:00:14.101Z,10.03
2018-03-26T14:03:16.669Z,10.23
2018-03-26T14:06:19.160Z,11.40
2018-03-26T14:09:33.590Z,10.47
2018-03-26T14:12:47.974Z,10.03
2018-03-26T14:16:02.321Z,10.77
2018-03-26T14:19:04.925Z,10.27
2018-03-26T14:22:07.393Z,10.93
2018-03-26T14:25:09.895Z,10.93
2018-03-26T14:28:12.364Z,11.20
2018-03-26T14:31:14.869Z,11.90
2018-03-26T14:34:17.444Z,11.00
2018-03-26T14:37:19.994Z,10.70
2018-03-26T14:40:22.555Z,10.37
2018-03-26T14:43:24.972Z,11.20
2018-03-26T14:46:27.542Z,10.13
2018-03-26T14:49:30.151Z,10.90
2018-03-26T14:52:32.621Z,11.10
2018-03-26T14:55:35.136Z,10.40
2018-03-26T14:58:37.661Z,11.10
2018-03-26T15:01:40.111Z,10.33
2018-03-26T15:04:42.770Z,10.83
2018-03-26T15:07:45.419Z,11.17
2018-03-26T15:10:47.977Z,11.50
2018-03-26T15:13:50.478Z,11.40
2018-03-26T15:16:53.005Z,10.00
2018-03-26T15:19:55.475Z,10.00
2018-03-26T15:22:58.022Z,9.93
2018-03-26T15:26:00.816Z,10.87
2018-03-26T15:29:03.256Z,10.53
2018-03-26T15:32:05.740Z,9.80
2018-03-26T15:35:08.266Z,10.90
2018-03-26T15:38:10.840Z,10.30
2018-03-26T15:41:13.411Z,10.70
2018-03-26T15:44:15.880Z,10.20
2018-03-26T15:47:18.424Z,9.33
2018-03-26T15:50:20.961Z,10.20
2018-03-26T15:53:23.451Z,9.97
2018-03-26T15:56:25.942Z,10.17
2018-03-26T15:59:28.480Z,10.57
2018-03-26T16:02:36.492Z,9.67
2018-03-26T16:05:39.019Z,9.63
2018-03-26T16:08:41.518Z,9.43
2018-03-26T16:11:44.031Z,9.63
2018-03-26T16:14:46.608Z,10.10
2018-03-26T16:17:49.092Z,9.07
2018-03-26T16:20:51.743Z,9.03
2018-03-26T16:23:54.240Z,9.23
2018-03-26T16:26:56.751Z,9.10
2018-03-26T16:29:59.319Z,8.97
2018-03-26T16:33:01.816Z,9.23
2018-03-26T16:36:04.352Z,9.00
2018-03-26T16:39:06.867Z,9.27
2018-03-26T16:42:27.782Z,8.80
2018-03-26T16:45:30.355Z,9.27
2018-03-26T16:48:32.828Z,8.43
2018-03-26T16:51:35.347Z,7.70
2018-03-26T16:54:37.936Z,7.60
2018-03-26T16:57:40.423Z,7.83
2018-03-26T17:00:42.993Z,7.47
2018-03-26T17:03:45.456Z,7.77
2018-03-26T17:06:47.972Z,7.07
2018-03-26T17:09:50.552Z,8.17
2018-03-26T17:12:53.027Z,9.10
2018-03-26T17:15:55.524Z,8.20
2018-03-26T17:18:58.072Z,8.00
2018-03-26T17:22:00.641Z,8.67
2018-03-26T17:25:03.261Z,8.40
2018-03-26T17:28:05.708Z,8.50
2018-03-26T17:31:08.211Z,8.40
2018-03-26T17:34:10.671Z,8.13
2018-03-26T17:37:13.198Z,8.80
2018-03-26T17:40:15.683Z,8.60
2018-03-26T17:43:18.629Z,9.63
2018-03-26T17:46:21.092Z,8.50
2018-03-26T17:49:23.638Z,8.10
2018-03-26T17:52:26.129Z,8.50
2018-03-26T17:55:28.678Z,9.73
2018-03-26T17:58:31.157Z,9.53
2018-03-26T18:01:33.800Z,7.90
2018-03-26T18:04:36.317Z,8.90
2018-03-26T18:07:38.813Z,8.90
2018-03-26T18:10:41.398Z,8.40
2018-03-26T18:13:43.929Z,8.60
2018-03-26T18:16:46.383Z,7.87
2018-03-26T18:19:48.958Z,7.70
2018-03-26T18:22:51.664Z,8.53
2018-03-26T18:25:54.308Z,8.37
2018-03-26T18:28:56.842Z,8.30
2018-03-26T18:31:59.420Z,9.20
2018-03-26T18:35:02.057Z,8.60
2018-03-26T18:38:04.667Z,8.70
2018-03-26T18:41:07.233Z,9.20
2018-03-26T18:44:09.714Z,9.17
2018-03-26T18:47:12.234Z,9.90
2018-03-26T18:50:14.718Z,8.67
2018-03-26T18:53:17.193Z,9.47
2018-03-26T18:56:19.748Z,9.77
2018-03-26T18:59:22.356Z,10.37
2018-03-26T19:02:24.877Z,9.00
2018-03-26T19:05:27.369Z,10.20
2018-03-26T19:08:29.938Z,10.00
2018-03-26T19:11:32.466Z,9.60
2018-03-26T19:14:35.118Z,9.23
2018-03-26T19:17:37.670Z,9.37
2018-03-26T19:20:40.195Z,8.83
2018-03-26T19:23:42.701Z,9.10
2018-03-26T19:26:45.261Z,9.00
2018-03-26T19:29:47.776Z,9.50
2018-03-26T19:32:50.263Z,8.80
2018-03-26T19:35:52.783Z,8.77
2018-03-26T19:38:55.650Z,9.93
2018-03-26T19:41:58.179Z,8.23
2018-03-26T19:45:00.680Z,8.73
2018-03-26T19:48:03.329Z,9.47
2018-03-26T19:51:05.833Z,9.77
2018-03-26T19:54:08.346Z,9.30
2018-03-26T19:57:10.794Z,10.07
2018-03-26T20:00:13.300Z,9.53
2018-03-26T20:03:15.822Z,10.10
2018-03-26T20:06:18.332Z,9.13
2018-03-26T20:09:20.828Z,9.80
2018-03-26T20:12:23.343Z,9.90
2018-03-26T20:15:25.953Z,9.33
2018-03-26T20:18:28.519Z,10.07
2018-03-26T20:21:31.009Z,10.67
2018-03-26T20:24:33.538Z,9.50
2018-03-26T20:27:36.216Z,10.00
2018-03-26T20:30:38.678Z,10.37
2018-03-26T20:33:41.208Z,9.57
2018-03-26T20:36:43.980Z,9.43
2018-03-26T20:39:46.525Z,9.70
2018-03-26T20:42:49.056Z,9.07
2018-03-26T20:45:51.692Z,9.43
2018-03-26T20:48:54.228Z,9.30
2018-03-26T20:51:56.809Z,9.00
2018-03-26T20:54:59.299Z,8.77
2018-03-26T20:58:01.864Z,10.60
2018-03-26T21:01:04.353Z,10.40
2018-03-26T21:04:06.964Z,10.60
2018-03-26T21:07:09.480Z,11.57
2018-03-26T21:10:12.110Z,13.07
2018-03-26T21:13:14.650Z,13.60
2018-03-26T21:16:17.161Z,12.50
2018-03-26T21:19:19.774Z,13.07
2018-03-26T21:22:22.343Z,12.97
2018-03-26T21:25:24.881Z,12.33
2018-03-26T21:28:27.385Z,14.20
2018-03-26T21:31:29.865Z,13.03
2018-03-26T21:34:32.493Z,15.03
2018-03-26T21:37:35.042Z,15.07
2018-03-26T21:40:37.610Z,15.30
2018-03-26T21:43:40.159Z,14.30
2018-03-26T21:46:42.742Z,15.93
2018-03-26T21:49:45.301Z,16.27
2018-03-26T21:52:47.867Z,15.80
2018-03-26T21:55:50.360Z,15.83
2018-03-26T21:58:52.885Z,15.27
2018-03-26T22:01:55.357Z,15.80
2018-03-26T22:04:57.806Z,16.33
2018-03-26T22:08:00.380Z,16.07
2018-03-26T22:11:02.938Z,14.83
2018-03-26T22:14:05.448Z,16.00
2018-03-26T22:17:08.064Z,16.60
2018-03-26T22:20:10.570Z,15.60
2018-03-26T22:23:13.057Z,15.93
2018-03-26T22:26:15.501Z,16.37
2018-03-26T22:29:18.103Z,15.57
2018-03-26T22:32:20.638Z,15.80
2018-03-26T22:35:23.128Z,15.13
2018-03-26T22:38:25.552Z,14.70
2018-03-26T22:41:28.030Z,14.23
2018-03-26T22:44:30.527Z,13.50
2018-03-26T22:47:33.022Z,14.23
2018-03-26T22:50:35.497Z,14.17
2018-03-26T22:53:38.006Z,15.73
2018-03-26T22:56:40.509Z,15.23
2018-03-26T22:59:43.006Z,15.70
2018-03-26T23:02:45.576Z,17.63
2018-03-26T23:05:48.020Z,14.80
2018-03-26T23:08:50.522Z,16.80
2018-03-26T23:11:53.040Z,15.87
2018-03-26T23:14:55.537Z,15.47
2018-03-26T23:17:57.976Z,15.90
2018-03-26T23:21:00.440Z,16.20
2018-03-26T23:24:02.912Z,15.87
2018-03-26T23:27:05.416Z,15.27
2018-03-26T23:30:07.922Z,16.40
2018-03-26T23:33:10.593Z,17.00
2018-03-26T23:36:13.199Z,17.40
2018-03-26T23:39:15.680Z,15.83
2018-03-26T23:42:18.153Z,15.53
2018-03-26T23:45:20.643Z,14.27
2018-03-26T23:48:23.121Z,15.40
2018-03-26T23:51:25.576Z,15.27
2018-03-26T23:54:28.182Z,15.70
2018-03-26T23:57:30.644Z,16.33
